sensor_id;sensor_type;location;lat;lon;timestamp;pressure;altitude;pressure_sealevel;temperature;humidity
35704;BME280;21820;51.112;13.762;2023-11-19T00:01:31;99432.47;;;23.54;58.53
35704;BME280;21820;51.112;13.762;2023-11-19T00:03:56;99416.53;;;23.47;58.21
35704;BME280;21820;51.112;13.762;2023-11-19T00:06:21;99413.41;;;23.44;58.27
35704;BME280;21820;51.112;13.762;2023-11-19T00:08:46;99413.56;;;23.42;58.81
35704;BME280;21820;51.112;13.762;2023-11-19T00:11:12;99389.16;;;23.42;59.04
35704;BME280;21820;51.112;13.762;2023-11-19T00:13:40;99370.63;;;23.43;58.86
35704;BME280;21820;51.112;13.762;2023-11-19T00:16:06;99352.25;;;23.43;59.10
35704;BME280;21820;51.112;13.762;2023-11-19T00:18:32;99376.81;;;23.42;58.66
35704;BME280;21820;51.112;13.762;2023-11-19T00:20:57;99368.00;;;23.43;59.53
35704;BME280;21820;51.112;13.762;2023-11-19T00:23:23;99369.63;;;23.44;58.88
35704;BME280;21820;51.112;13.762;2023-11-19T00:25:48;99380.13;;;23.44;59.10
35704;BME280;21820;51.112;13.762;2023-11-19T00:28:13;99372.91;;;23.46;58.94
35704;BME280;21820;51.112;13.762;2023-11-19T00:30:38;99350.31;;;23.45;58.53
35704;BME280;21820;51.112;13.762;2023-11-19T00:33:05;99329.22;;;23.29;58.38
35704;BME280;21820;51.112;13.762;2023-11-19T00:35:30;99362.44;;;23.46;59.12
35704;BME280;21820;51.112;13.762;2023-11-19T00:37:57;99359.81;;;23.46;58.76
35704;BME280;21820;51.112;13.762;2023-11-19T00:40:23;99355.56;;;23.45;59.22
35704;BME280;21820;51.112;13.762;2023-11-19T00:42:49;99345.06;;;23.45;59.17
35704;BME280;21820;51.112;13.762;2023-11-19T00:45:14;99350.31;;;23.45;59.13
35704;BME280;21820;51.112;13.762;2023-11-19T00:47:39;99341.59;;;23.45;59.35
35704;BME280;21820;51.112;13.762;2023-11-19T00:50:05;99338.81;;;23.46;59.13
35704;BME280;21820;51.112;13.762;2023-11-19T00:52:30;99329.31;;;23.45;59.47
35704;BME280;21820;51.112;13.762;2023-11-19T00:54:56;99305.00;;;23.35;59.13
35704;BME280;21820;51.112;13.762;2023-11-19T00:57:22;99320.44;;;23.46;58.76
35704;BME280;21820;51.112;13.762;2023-11-19T00:59:47;99301.25;;;23.46;58.62
35704;BME280;21820;51.112;13.762;2023-11-19T01:02:12;99298.13;;;23.42;58.79
35704;BME280;21820;51.112;13.762;2023-11-19T01:04:39;99288.97;;;23.46;58.84
35704;BME280;21820;51.112;13.762;2023-11-19T01:07:04;99270.44;;;23.48;59.07
35704;BME280;21820;51.112;13.762;2023-11-19T01:09:30;99269.59;;;23.47;58.49
35704;BME280;21820;51.112;13.762;2023-11-19T01:11:57;99267.97;;;23.46;58.86
35704;BME280;21820;51.112;13.762;2023-11-19T01:14:23;99261.09;;;23.45;58.49
35704;BME280;21820;51.112;13.762;2023-11-19T01:16:48;99270.44;;;23.48;58.48
35704;BME280;21820;51.112;13.762;2023-11-19T01:19:13;99247.97;;;23.45;58.92
35704;BME280;21820;51.112;13.762;2023-11-19T01:21:39;99250.59;;;23.45;58.59
35704;BME280;21820;51.112;13.762;2023-11-19T01:24:04;99251.22;;;23.47;58.53
35704;BME280;21820;51.112;13.762;2023-11-19T01:26:34;99260.09;;;23.46;57.96
35704;BME280;21820;51.112;13.762;2023-11-19T01:28:59;99238.44;;;23.44;58.55
35704;BME280;21820;51.112;13.762;2023-11-19T01:31:25;99235.66;;;23.46;58.00
35704;BME280;21820;51.112;13.762;2023-11-19T01:33:50;99232.06;;;23.47;58.63
35704;BME280;21820;51.112;13.762;2023-11-19T01:36:15;99220.91;;;23.45;57.87
35704;BME280;21820;51.112;13.762;2023-11-19T01:38:40;99220.06;;;23.44;58.09
35704;BME280;21820;51.112;13.762;2023-11-19T01:41:06;99208.63;;;23.45;58.92
35704;BME280;21820;51.112;13.762;2023-11-19T01:43:32;99199.25;;;23.43;58.83
35704;BME280;21820;51.112;13.762;2023-11-19T01:45:58;99198.13;;;23.45;58.22
35704;BME280;21820;51.112;13.762;2023-11-19T01:48:23;99186.63;;;23.38;57.95
35704;BME280;21820;51.112;13.762;2023-11-19T01:50:48;99182.50;;;23.44;58.87
35704;BME280;21820;51.112;13.762;2023-11-19T01:53:14;99148.88;;;23.31;57.92
35704;BME280;21820;51.112;13.762;2023-11-19T01:55:40;99168.94;;;23.40;58.07
35704;BME280;21820;51.112;13.762;2023-11-19T01:58:05;99166.94;;;23.42;58.12
35704;BME280;21820;51.112;13.762;2023-11-19T02:00:32;99162.69;;;23.41;58.22
35704;BME280;21820;51.112;13.762;2023-11-19T02:02:58;99159.09;;;23.50;58.02
35704;BME280;21820;51.112;13.762;2023-11-19T02:05:23;99142.03;;;23.46;58.51
35704;BME280;21820;51.112;13.762;2023-11-19T02:07:49;99130.22;;;23.42;58.19
35704;BME280;21820;51.112;13.762;2023-11-19T02:10:16;99117.91;;;23.43;58.55
35704;BME280;21820;51.112;13.762;2023-11-19T02:12:44;99130.22;;;23.42;58.78
35704;BME280;21820;51.112;13.762;2023-11-19T02:15:10;99107.91;;;23.38;57.99
35704;BME280;21820;51.112;13.762;2023-11-19T02:17:35;99114.78;;;23.39;58.40
35704;BME280;21820;51.112;13.762;2023-11-19T02:20:02;99104.47;;;23.38;57.87
35704;BME280;21820;51.112;13.762;2023-11-19T02:22:28;99099.38;;;23.36;58.17
35704;BME280;21820;51.112;13.762;2023-11-19T02:24:58;99079.88;;;23.31;58.72
35704;BME280;21820;51.112;13.762;2023-11-19T02:28:09;99081.03;;;23.36;58.70
35704;BME280;21820;51.112;13.762;2023-11-19T02:30:10;99085.28;;;23.37;57.95
35704;BME280;21820;51.112;13.762;2023-11-19T02:32:36;99057.72;;;23.25;58.62
35704;BME280;21820;51.112;13.762;2023-11-19T02:35:03;99068.56;;;23.38;58.40
35704;BME280;21820;51.112;13.762;2023-11-19T02:37:29;99059.53;;;23.33;58.32
35704;BME280;21820;51.112;13.762;2023-11-19T02:39:54;99057.25;;;23.38;58.02
35704;BME280;21820;51.112;13.762;2023-11-19T02:42:20;99055.63;;;23.37;59.00
35704;BME280;21820;51.112;13.762;2023-11-19T02:44:45;99057.41;;;23.36;58.36
35704;BME280;21820;51.112;13.762;2023-11-19T02:47:11;99057.09;;;23.31;58.55
35704;BME280;21820;51.112;13.762;2023-11-19T02:49:36;99044.81;;;23.32;58.76
35704;BME280;21820;51.112;13.762;2023-11-19T02:52:02;99039.06;;;23.36;58.99
35704;BME280;21820;51.112;13.762;2023-11-19T02:54:28;99033.47;;;23.31;58.82
35704;BME280;21820;51.112;13.762;2023-11-19T02:56:54;99010.19;;;23.12;58.45
35704;BME280;21820;51.112;13.762;2023-11-19T02:59:24;99019.88;;;23.28;58.44
35704;BME280;21820;51.112;13.762;2023-11-19T03:01:53;99001.50;;;23.28;58.89
35704;BME280;21820;51.112;13.762;2023-11-19T03:04:19;99005.63;;;23.30;58.83
35704;BME280;21820;51.112;13.762;2023-11-19T03:06:45;98971.81;;;23.19;58.36
35704;BME280;21820;51.112;13.762;2023-11-19T03:09:10;98998.06;;;23.35;59.02
35704;BME280;21820;51.112;13.762;2023-11-19T03:11:36;98985.13;;;23.34;58.74
35704;BME280;21820;51.112;13.762;2023-11-19T03:14:01;98975.78;;;23.31;58.66
35704;BME280;21820;51.112;13.762;2023-11-19T03:16:28;98979.38;;;23.30;58.66
35704;BME280;21820;51.112;13.762;2023-11-19T03:18:53;98949.88;;;23.12;59.10
35704;BME280;21820;51.112;13.762;2023-11-19T03:21:18;98979.56;;;23.29;58.30
35704;BME280;21820;51.112;13.762;2023-11-19T03:23:43;98966.72;;;23.25;58.13
35704;BME280;21820;51.112;13.762;2023-11-19T03:26:10;98947.56;;;23.25;58.47
35704;BME280;21820;51.112;13.762;2023-11-19T03:28:35;98948.53;;;23.24;58.91
35704;BME280;21820;51.112;13.762;2023-11-19T03:31:01;98946.56;;;23.26;58.30
35704;BME280;21820;51.112;13.762;2023-11-19T03:33:26;98948.88;;;23.29;58.35
35704;BME280;21820;51.112;13.762;2023-11-19T03:35:53;98946.75;;;23.33;58.47
35704;BME280;21820;51.112;13.762;2023-11-19T03:38:18;98948.41;;;23.34;58.82
35704;BME280;21820;51.112;13.762;2023-11-19T03:40:43;98917.72;;;23.18;58.88
35704;BME280;21820;51.112;13.762;2023-11-19T03:43:08;98934.47;;;23.33;58.38
35704;BME280;21820;51.112;13.762;2023-11-19T03:45:34;98938.38;;;23.29;58.55
35704;BME280;21820;51.112;13.762;2023-11-19T03:48:01;98928.72;;;23.30;58.53
35704;BME280;21820;51.112;13.762;2023-11-19T03:50:26;98914.13;;;23.27;58.21
35704;BME280;21820;51.112;13.762;2023-11-19T03:52:51;98897.72;;;23.25;58.24
35704;BME280;21820;51.112;13.762;2023-11-19T03:55:17;98901.31;;;23.24;58.59
35704;BME280;21820;51.112;13.762;2023-11-19T03:57:42;98889.19;;;23.23;58.70
35704;BME280;21820;51.112;13.762;2023-11-19T04:00:08;98892.81;;;23.22;59.19
35704;BME280;21820;51.112;13.762;2023-11-19T04:02:38;98887.88;;;23.19;58.55
35704;BME280;21820;51.112;13.762;2023-11-19T04:05:04;98899.19;;;23.19;58.45
35704;BME280;21820;51.112;13.762;2023-11-19T04:07:30;98875.44;;;23.21;58.91
35704;BME280;21820;51.112;13.762;2023-11-19T04:09:55;98874.16;;;23.17;58.57
35704;BME280;21820;51.112;13.762;2023-11-19T04:12:20;98869.53;;;23.19;58.46
35704;BME280;21820;51.112;13.762;2023-11-19T04:14:47;98874.94;;;23.17;58.86
35704;BME280;21820;51.112;13.762;2023-11-19T04:17:12;98872.16;;;23.19;59.37
35704;BME280;21820;51.112;13.762;2023-11-19T04:19:37;98862.66;;;23.18;58.52
35704;BME280;21820;51.112;13.762;2023-11-19T04:22:05;98859.03;;;23.27;58.88
35704;BME280;21820;51.112;13.762;2023-11-19T04:24:31;98870.50;;;23.34;58.17
35704;BME280;21820;51.112;13.762;2023-11-19T04:26:56;98872.16;;;23.27;58.65
35704;BME280;21820;51.112;13.762;2023-11-19T04:29:21;98871.84;;;23.22;59.23
35704;BME280;21820;51.112;13.762;2023-11-19T04:31:46;98854.44;;;23.21;58.70
35704;BME280;21820;51.112;13.762;2023-11-19T04:34:12;98831.38;;;23.08;58.36
35704;BME280;21820;51.112;13.762;2023-11-19T04:36:37;98848.38;;;23.20;58.82
35704;BME280;21820;51.112;13.762;2023-11-19T04:39:03;98848.09;;;23.07;57.97
35704;BME280;21820;51.112;13.762;2023-11-19T04:41:34;98848.63;;;22.95;58.74
35704;BME280;21820;51.112;13.762;2023-11-19T04:43:59;98832.50;;;23.14;57.37
35704;BME280;21820;51.112;13.762;2023-11-19T04:46:24;98832.41;;;23.54;56.58
35704;BME280;21820;51.112;13.762;2023-11-19T04:48:49;98807.78;;;23.63;56.07
35704;BME280;21820;51.112;13.762;2023-11-19T04:51:15;98824.97;;;23.96;55.66
35704;BME280;21820;51.112;13.762;2023-11-19T04:53:40;98809.78;;;24.14;54.82
35704;BME280;21820;51.112;13.762;2023-11-19T04:56:12;98806.56;;;24.27;55.23
35704;BME280;21820;51.112;13.762;2023-11-19T04:58:38;98805.25;;;24.31;54.70
35704;BME280;21820;51.112;13.762;2023-11-19T05:01:03;98791.50;;;24.43;54.17
35704;BME280;21820;51.112;13.762;2023-11-19T05:03:29;98776.53;;;24.29;54.73
35704;BME280;21820;51.112;13.762;2023-11-19T05:05:55;98788.44;;;24.55;54.17
35704;BME280;21820;51.112;13.762;2023-11-19T05:08:20;98793.00;;;24.61;53.83
35704;BME280;21820;51.112;13.762;2023-11-19T05:10:45;98793.97;;;24.60;54.00
35704;BME280;21820;51.112;13.762;2023-11-19T05:13:10;98793.94;;;24.68;53.42
35704;BME280;21820;51.112;13.762;2023-11-19T05:15:36;98773.22;;;24.65;53.99
35704;BME280;21820;51.112;13.762;2023-11-19T05:18:01;98772.56;;;24.71;53.60
35704;BME280;21820;51.112;13.762;2023-11-19T05:20:26;98777.00;;;24.70;54.06
35704;BME280;21820;51.112;13.762;2023-11-19T05:22:52;98778.72;;;24.78;52.99
35704;BME280;21820;51.112;13.762;2023-11-19T05:25:18;98763.41;;;24.81;53.64
35704;BME280;21820;51.112;13.762;2023-11-19T05:27:45;98763.22;;;24.83;53.17
35704;BME280;21820;51.112;13.762;2023-11-19T05:30:10;98764.13;;;24.90;52.76
35704;BME280;21820;51.112;13.762;2023-11-19T05:32:36;98751.06;;;24.82;53.34
35704;BME280;21820;51.112;13.762;2023-11-19T05:35:01;98752.97;;;24.88;53.41
35704;BME280;21820;51.112;13.762;2023-11-19T05:37:26;98745.38;;;24.93;53.29
35704;BME280;21820;51.112;13.762;2023-11-19T05:39:52;98747.63;;;24.96;53.09
35704;BME280;21820;51.112;13.762;2023-11-19T05:42:17;98737.66;;;24.91;52.92
35704;BME280;21820;51.112;13.762;2023-11-19T05:44:42;98743.81;;;24.98;53.19
35704;BME280;21820;51.112;13.762;2023-11-19T05:47:08;98749.91;;;24.99;53.65
35704;BME280;21820;51.112;13.762;2023-11-19T05:49:33;98725.97;;;24.94;52.84
35704;BME280;21820;51.112;13.762;2023-11-19T05:51:58;98732.56;;;25.04;53.21
35704;BME280;21820;51.112;13.762;2023-11-19T05:54:24;98730.94;;;25.03;53.41
35704;BME280;21820;51.112;13.762;2023-11-19T05:56:49;98722.88;;;25.05;52.83
35704;BME280;21820;51.112;13.762;2023-11-19T05:59:14;98727.69;;;25.01;53.08
35704;BME280;21820;51.112;13.762;2023-11-19T06:01:42;98725.69;;;25.03;53.22
35704;BME280;21820;51.112;13.762;2023-11-19T06:04:08;98715.09;;;24.97;53.07
35704;BME280;21820;51.112;13.762;2023-11-19T06:06:33;98705.66;;;24.88;53.14
35704;BME280;21820;51.112;13.762;2023-11-19T06:08:58;98700.31;;;24.81;53.23
35704;BME280;21820;51.112;13.762;2023-11-19T06:11:23;98677.81;;;24.64;53.82
35704;BME280;21820;51.112;13.762;2023-11-19T06:13:51;98693.72;;;24.63;54.50
35704;BME280;21820;51.112;13.762;2023-11-19T06:16:17;98684.88;;;24.49;54.68
35704;BME280;21820;51.112;13.762;2023-11-19T06:18:42;98694.28;;;24.43;54.41
35704;BME280;21820;51.112;13.762;2023-11-19T06:21:09;98657.84;;;24.26;55.08
35704;BME280;21820;51.112;13.762;2023-11-19T06:23:34;98668.91;;;24.36;55.33
35704;BME280;21820;51.112;13.762;2023-11-19T06:25:59;98667.72;;;24.38;55.05
35704;BME280;21820;51.112;13.762;2023-11-19T06:28:24;98671.97;;;24.39;54.94
35704;BME280;21820;51.112;13.762;2023-11-19T06:30:50;98662.09;;;24.41;54.80
35704;BME280;21820;51.112;13.762;2023-11-19T06:33:15;98660.56;;;24.47;54.65
35704;BME280;21820;51.112;13.762;2023-11-19T06:35:40;98663.47;;;24.52;54.77
35704;BME280;21820;51.112;13.762;2023-11-19T06:38:06;98654.59;;;24.53;54.39
35704;BME280;21820;51.112;13.762;2023-11-19T06:40:34;98663.94;;;24.56;54.45
35704;BME280;21820;51.112;13.762;2023-11-19T06:43:03;98669.75;;;24.66;54.75
35704;BME280;21820;51.112;13.762;2023-11-19T06:45:33;98662.16;;;24.71;54.28
35704;BME280;21820;51.112;13.762;2023-11-19T06:48:02;98669.88;;;24.72;53.75
35704;BME280;21820;51.112;13.762;2023-11-19T06:50:28;98646.56;;;24.69;53.82
35704;BME280;21820;51.112;13.762;2023-11-19T06:52:53;98647.44;;;24.76;53.85
35704;BME280;21820;51.112;13.762;2023-11-19T06:55:19;98654.34;;;24.77;54.09
35704;BME280;21820;51.112;13.762;2023-11-19T06:57:44;98652.19;;;24.81;54.41
35704;BME280;21820;51.112;13.762;2023-11-19T07:00:09;98653.06;;;24.88;53.84
35704;BME280;21820;51.112;13.762;2023-11-19T07:02:36;98626.97;;;24.72;54.13
35704;BME280;21820;51.112;13.762;2023-11-19T07:05:01;98651.06;;;24.90;53.85
35704;BME280;21820;51.112;13.762;2023-11-19T07:07:29;98646.25;;;24.93;53.79
35704;BME280;21820;51.112;13.762;2023-11-19T07:09:55;98622.25;;;24.82;53.34
35704;BME280;21820;51.112;13.762;2023-11-19T07:12:20;98642.63;;;24.94;53.48
35704;BME280;21820;51.112;13.762;2023-11-19T07:14:45;98658.13;;;24.89;54.19
35704;BME280;21820;51.112;13.762;2023-11-19T07:17:11;98653.72;;;24.75;53.97
35704;BME280;21820;51.112;13.762;2023-11-19T07:19:37;98661.78;;;24.74;54.22
35704;BME280;21820;51.112;13.762;2023-11-19T07:22:03;98668.47;;;24.62;54.03
35704;BME280;21820;51.112;13.762;2023-11-19T07:24:28;98673.16;;;24.52;54.21
35704;BME280;21820;51.112;13.762;2023-11-19T07:26:53;98677.16;;;24.48;54.83
35704;BME280;21820;51.112;13.762;2023-11-19T07:29:19;98679.84;;;24.39;55.20
35704;BME280;21820;51.112;13.762;2023-11-19T07:31:44;98673.16;;;24.37;55.01
35704;BME280;21820;51.112;13.762;2023-11-19T07:34:10;98679.44;;;24.36;55.68
35704;BME280;21820;51.112;13.762;2023-11-19T07:36:36;98687.59;;;24.41;55.07
35704;BME280;21820;51.112;13.762;2023-11-19T07:39:01;98678.69;;;24.42;55.05
35704;BME280;21820;51.112;13.762;2023-11-19T07:41:27;98688.94;;;24.52;55.01
35704;BME280;21820;51.112;13.762;2023-11-19T07:43:52;98678.41;;;24.52;55.01
35704;BME280;21820;51.112;13.762;2023-11-19T07:46:18;98668.19;;;24.57;54.40
35704;BME280;21820;51.112;13.762;2023-11-19T07:48:46;98676.97;;;24.64;54.72
35704;BME280;21820;51.112;13.762;2023-11-19T07:51:14;98674.00;;;24.67;54.34
35704;BME280;21820;51.112;13.762;2023-11-19T07:53:40;98675.19;;;24.79;54.31
35704;BME280;21820;51.112;13.762;2023-11-19T07:56:06;98660.13;;;24.73;54.17
35704;BME280;21820;51.112;13.762;2023-11-19T07:58:31;98663.03;;;24.78;54.52
35704;BME280;21820;51.112;13.762;2023-11-19T08:00:57;98662.31;;;24.84;54.09
35704;BME280;21820;51.112;13.762;2023-11-19T08:03:22;98670.84;;;24.86;54.27
35704;BME280;21820;51.112;13.762;2023-11-19T08:05:48;98668.03;;;24.87;54.23
35704;BME280;21820;51.112;13.762;2023-11-19T08:08:13;98686.34;;;24.95;53.68
35704;BME280;21820;51.112;13.762;2023-11-19T08:10:38;98677.44;;;24.96;54.13
35704;BME280;21820;51.112;13.762;2023-11-19T08:13:05;98677.91;;;25.00;54.03
35704;BME280;21820;51.112;13.762;2023-11-19T08:15:30;98688.03;;;25.03;53.97
35704;BME280;21820;51.112;13.762;2023-11-19T08:17:55;98692.22;;;25.12;53.57
35704;BME280;21820;51.112;13.762;2023-11-19T08:20:21;98675.91;;;25.02;53.25
35704;BME280;21820;51.112;13.762;2023-11-19T08:22:46;98671.47;;;25.02;53.56
35704;BME280;21820;51.112;13.762;2023-11-19T08:25:11;98673.38;;;24.94;53.52
35704;BME280;21820;51.112;13.762;2023-11-19T08:27:37;98665.59;;;24.86;54.26
35704;BME280;21820;51.112;13.762;2023-11-19T08:30:02;98680.66;;;24.77;53.88
35704;BME280;21820;51.112;13.762;2023-11-19T08:32:27;98690.06;;;24.72;54.31
35704;BME280;21820;51.112;13.762;2023-11-19T08:34:56;98680.16;;;24.59;54.92
35704;BME280;21820;51.112;13.762;2023-11-19T08:37:21;98667.28;;;24.49;54.99
35704;BME280;21820;51.112;13.762;2023-11-19T08:39:50;98670.25;;;24.46;55.17
35704;BME280;21820;51.112;13.762;2023-11-19T08:42:16;98661.41;;;24.48;55.05
35704;BME280;21820;51.112;13.762;2023-11-19T08:44:41;98669.28;;;24.48;55.22
35704;BME280;21820;51.112;13.762;2023-11-19T08:47:08;98670.25;;;24.46;54.89
35704;BME280;21820;51.112;13.762;2023-11-19T08:49:34;98679.44;;;24.51;54.80
35704;BME280;21820;51.112;13.762;2023-11-19T08:51:59;98688.06;;;24.59;54.92
35704;BME280;21820;51.112;13.762;2023-11-19T08:54:24;98694.75;;;24.62;54.48
35704;BME280;21820;51.112;13.762;2023-11-19T08:56:50;98683.97;;;24.71;54.50
35704;BME280;21820;51.112;13.762;2023-11-19T08:59:15;98704.50;;;24.76;54.61
35704;BME280;21820;51.112;13.762;2023-11-19T09:01:41;98697.50;;;24.83;54.40
35704;BME280;21820;51.112;13.762;2023-11-19T09:04:06;98693.50;;;24.87;54.12
35704;BME280;21820;51.112;13.762;2023-11-19T09:06:32;98695.50;;;24.85;54.28
35704;BME280;21820;51.112;13.762;2023-11-19T09:08:57;98688.16;;;24.95;54.28
35704;BME280;21820;51.112;13.762;2023-11-19T09:11:26;98697.31;;;24.99;53.55
35704;BME280;21820;51.112;13.762;2023-11-19T09:13:51;98701.38;;;25.01;53.58
35704;BME280;21820;51.112;13.762;2023-11-19T09:16:17;98687.66;;;25.06;53.44
35704;BME280;21820;51.112;13.762;2023-11-19T09:18:42;98696.84;;;25.10;53.71
35704;BME280;21820;51.112;13.762;2023-11-19T09:21:07;98690.56;;;25.11;53.92
35704;BME280;21820;51.112;13.762;2023-11-19T09:23:32;98698.00;;;25.22;53.24
35704;BME280;21820;51.112;13.762;2023-11-19T09:26:04;98698.00;;;25.22;52.74
35704;BME280;21820;51.112;13.762;2023-11-19T09:28:30;98703.97;;;25.16;53.59
35704;BME280;21820;51.112;13.762;2023-11-19T09:30:55;98689.63;;;24.97;53.15
35704;BME280;21820;51.112;13.762;2023-11-19T09:33:21;98691.41;;;24.97;54.14
35704;BME280;21820;51.112;13.762;2023-11-19T09:35:46;98681.19;;;24.87;53.93
35704;BME280;21820;51.112;13.762;2023-11-19T09:38:11;98682.53;;;24.83;54.23
35704;BME280;21820;51.112;13.762;2023-11-19T09:40:37;98664.66;;;24.64;54.63
35704;BME280;21820;51.112;13.762;2023-11-19T09:43:03;98671.38;;;24.67;54.66
35704;BME280;21820;51.112;13.762;2023-11-19T09:45:29;98653.06;;;24.44;54.62
35704;BME280;21820;51.112;13.762;2023-11-19T09:47:57;98676.63;;;24.52;55.35
35704;BME280;21820;51.112;13.762;2023-11-19T09:50:25;98684.88;;;24.49;54.90
35704;BME280;21820;51.112;13.762;2023-11-19T09:52:51;98682.06;;;24.51;55.08
35704;BME280;21820;51.112;13.762;2023-11-19T09:55:16;98688.94;;;24.52;55.58
35704;BME280;21820;51.112;13.762;2023-11-19T09:57:41;98674.81;;;24.53;55.13
35704;BME280;21820;51.112;13.762;2023-11-19T10:00:08;98673.44;;;24.42;50.73
35704;BME280;21820;51.112;13.762;2023-11-19T10:02:35;98669.72;;;24.36;49.77
35704;BME280;21820;51.112;13.762;2023-11-19T10:05:02;98670.00;;;24.56;48.36
35704;BME280;21820;51.112;13.762;2023-11-19T10:07:30;98669.19;;;24.85;47.63
35704;BME280;21820;51.112;13.762;2023-11-19T10:09:58;98673.53;;;25.07;47.28
35704;BME280;21820;51.112;13.762;2023-11-19T10:12:23;98664.00;;;25.20;46.99
35704;BME280;21820;51.112;13.762;2023-11-19T10:14:48;98666.88;;;25.40;46.48
35704;BME280;21820;51.112;13.762;2023-11-19T10:17:16;98667.63;;;25.55;43.49
35704;BME280;21820;51.112;13.762;2023-11-19T10:19:41;98672.66;;;25.71;44.95
35704;BME280;21820;51.112;13.762;2023-11-19T10:22:06;98671.38;;;25.67;41.96
35704;BME280;21820;51.112;13.762;2023-11-19T10:24:32;98668.31;;;25.63;40.53
35704;BME280;21820;51.112;13.762;2023-11-19T10:26:59;98667.81;;;25.75;40.37
35704;BME280;21820;51.112;13.762;2023-11-19T10:29:24;98672.75;;;25.84;41.67
35704;BME280;21820;51.112;13.762;2023-11-19T10:31:58;98665.09;;;25.89;42.58
35704;BME280;21820;51.112;13.762;2023-11-19T10:34:24;98666.72;;;25.90;42.50
35704;BME280;21820;51.112;13.762;2023-11-19T10:36:50;98661.31;;;25.98;41.09
35704;BME280;21820;51.112;13.762;2023-11-19T10:39:16;98663.41;;;25.60;41.92
35704;BME280;21820;51.112;13.762;2023-11-19T10:41:41;98640.66;;;25.32;41.94
35704;BME280;21820;51.112;13.762;2023-11-19T10:44:07;98654.78;;;25.31;42.65
35704;BME280;21820;51.112;13.762;2023-11-19T10:46:39;98631.97;;;25.17;44.74
35704;BME280;21820;51.112;13.762;2023-11-19T10:49:08;98641.50;;;25.18;46.23
35704;BME280;21820;51.112;13.762;2023-11-19T10:51:34;98660.00;;;25.10;46.85
35704;BME280;21820;51.112;13.762;2023-11-19T10:54:02;98673.00;;;24.97;45.48
35704;BME280;21820;51.112;13.762;2023-11-19T10:56:29;98661.34;;;24.70;44.76
35704;BME280;21820;51.112;13.762;2023-11-19T10:58:55;98674.09;;;24.59;45.41
35704;BME280;21820;51.112;13.762;2023-11-19T11:01:24;98679.91;;;24.69;46.31
35704;BME280;21820;51.112;13.762;2023-11-19T11:03:51;98659.81;;;24.76;47.23
35704;BME280;21820;51.112;13.762;2023-11-19T11:06:19;98657.44;;;24.81;47.49
35704;BME280;21820;51.112;13.762;2023-11-19T11:08:44;98660.84;;;24.96;47.63
35704;BME280;21820;51.112;13.762;2023-11-19T11:11:11;98659.50;;;25.00;47.86
35704;BME280;21820;51.112;13.762;2023-11-19T11:13:38;98667.53;;;25.13;47.32
35704;BME280;21820;51.112;13.762;2023-11-19T11:16:05;98661.25;;;25.28;47.09
35704;BME280;21820;51.112;13.762;2023-11-19T11:18:32;98647.19;;;25.36;46.84
35704;BME280;21820;51.112;13.762;2023-11-19T11:21:08;98662.25;;;25.63;47.10
35704;BME280;21820;51.112;13.762;2023-11-19T11:23:54;98654.47;;;25.76;46.30
35704;BME280;21820;51.112;13.762;2023-11-19T11:26:28;98655.34;;;25.83;46.42
35704;BME280;21820;51.112;13.762;2023-11-19T11:36:45;98639.00;;;26.15;45.47
35704;BME280;21820;51.112;13.762;2023-11-19T11:39:14;98645.97;;;26.23;45.14
35704;BME280;21820;51.112;13.762;2023-11-19T11:41:40;98644.78;;;26.32;45.74
35704;BME280;21820;51.112;13.762;2023-11-19T11:44:05;98661.78;;;26.23;46.44
35704;BME280;21820;51.112;13.762;2023-11-19T11:49:08;98661.09;;;25.93;47.06
35704;BME280;21820;51.112;13.762;2023-11-19T11:54:30;98650.31;;;25.46;48.24
35704;BME280;21820;51.112;13.762;2023-11-19T11:57:02;98663.41;;;25.39;48.44
35704;BME280;21820;51.112;13.762;2023-11-19T11:59:49;98659.34;;;25.22;49.02
35704;BME280;21820;51.112;13.762;2023-11-19T12:02:18;98654.13;;;25.08;48.89
35704;BME280;21820;51.112;13.762;2023-11-19T12:04:49;98653.59;;;24.98;49.14
35704;BME280;21820;51.112;13.762;2023-11-19T12:07:17;98650.81;;;24.85;50.13
35704;BME280;21820;51.112;13.762;2023-11-19T12:09:46;98664.03;;;24.77;50.24
35704;BME280;21820;51.112;13.762;2023-11-19T12:12:19;98657.34;;;24.74;50.37
35704;BME280;21820;51.112;13.762;2023-11-19T12:15:03;98650.91;;;24.77;50.41
35704;BME280;21820;51.112;13.762;2023-11-19T12:19:58;98637.66;;;24.85;49.70
35704;BME280;21820;51.112;13.762;2023-11-19T12:22:24;98635.44;;;25.03;50.01
35704;BME280;21820;51.112;13.762;2023-11-19T12:24:50;98630.97;;;25.18;49.84
35704;BME280;21820;51.112;13.762;2023-11-19T12:27:16;98624.34;;;25.22;48.73
35704;BME280;21820;51.112;13.762;2023-11-19T12:29:43;98629.84;;;25.41;48.74
35704;BME280;21820;51.112;13.762;2023-11-19T12:32:09;98631.56;;;25.55;48.01
35704;BME280;21820;51.112;13.762;2023-11-19T12:34:35;98616.78;;;25.76;48.28
35704;BME280;21820;51.112;13.762;2023-11-19T12:37:03;98613.22;;;25.83;47.73
35704;BME280;21820;51.112;13.762;2023-11-19T12:39:32;98620.19;;;25.97;46.64
35704;BME280;21820;51.112;13.762;2023-11-19T12:41:57;98610.22;;;26.14;47.43
35704;BME280;21820;51.112;13.762;2023-11-19T12:44:27;98635.81;;;26.26;46.32
35704;BME280;21820;51.112;13.762;2023-11-19T12:47:01;98636.44;;;26.28;46.65
35704;BME280;21820;51.112;13.762;2023-11-19T12:49:27;98631.81;;;26.30;46.27
35704;BME280;21820;51.112;13.762;2023-11-19T12:51:52;98627.91;;;26.26;46.49
35704;BME280;21820;51.112;13.762;2023-11-19T12:54:18;98633.28;;;26.12;47.07
35704;BME280;21820;51.112;13.762;2023-11-19T12:56:51;98617.16;;;26.00;47.60
35704;BME280;21820;51.112;13.762;2023-11-19T12:59:17;98622.91;;;25.83;47.52
35704;BME280;21820;51.112;13.762;2023-11-19T13:01:53;98626.03;;;25.65;48.15